Time;durP1;ratioP1;P1;durP2;ratioP2;P2;SDS_P1;SDS_P2;PMS_P1;PMS_P2;Temp;Humidity;BMP_temperature;BMP_pressure;BME280_temperature;BME280_humidity;BME280_pressure;Samples;Min_cycle;Max_cycle;Signal;HPM_P1;HPM_P2
2022/01/20 00:01:42;;;;;;;13.57;6.73;;;;;;;0.49;100.00;96765.66;5063636;28;20458;-77
2022/01/20 00:05:14;;;;;;;10.82;5.95;;;;;;;0.49;100.00;96749.31;5052284;28;20066;-77
2022/01/20 00:28:19;;;;;;;13.87;8.07;;;;;;;0.22;100.00;96747.31;5085891;28;20880;-77
2022/01/20 00:31:01;;;;;;;11.13;6.87;;;;;;;0.14;100.00;96752.09;5068416;28;20493;-77
2022/01/20 00:33:53;;;;;;;12.73;7.60;;;;;;;0.18;100.00;96749.25;5057319;28;20467;-77
2022/01/20 00:39:04;;;;;;;14.40;7.60;;;;;;;0.06;100.00;96749.88;5080814;28;20438;-77
2022/01/20 00:41:31;;;;;;;12.47;7.03;;;;;;;-0.01;100.00;96751.97;5063158;28;20510;-76
2022/01/20 00:43:56;;;;;;;13.10;7.80;;;;;;;0.02;100.00;96756.16;5066060;28;20484;-77
2022/01/20 00:46:22;;;;;;;13.00;8.27;;;;;;;-0.04;100.00;96764.22;5050814;28;20470;-77
2022/01/20 00:48:47;;;;;;;12.30;7.80;;;;;;;-0.04;100.00;96757.31;5093205;28;20012;-77
2022/01/20 00:51:13;;;;;;;13.20;8.13;;;;;;;-0.04;100.00;96764.22;5097530;28;20603;-77
2022/01/20 00:53:44;;;;;;;13.70;8.90;;;;;;;-0.08;100.00;96763.56;5075805;28;20039;-77
2022/01/20 00:56:13;;;;;;;16.43;8.57;;;;;;;-0.08;100.00;96765.31;5061727;28;21015;-79
2022/01/20 00:58:39;;;;;;;13.97;7.57;;;;;;;-0.06;100.00;96763.50;5051608;28;20454;-77
2022/01/20 01:01:05;;;;;;;15.63;8.70;;;;;;;-0.08;100.00;96762.72;5069091;28;20469;-77
2022/01/20 01:03:31;;;;;;;11.80;7.30;;;;;;;-0.09;100.00;96758.47;5055799;28;20558;-77
2022/01/20 01:06:12;;;;;;;14.50;7.77;;;;;;;-0.12;100.00;96764.63;5045285;28;20025;-79
2022/01/20 01:08:39;;;;;;;13.63;8.37;;;;;;;-0.12;100.00;96768.97;5055562;28;20036;-77
2022/01/20 01:11:05;;;;;;;14.93;8.97;;;;;;;-0.09;100.00;96763.66;5046258;28;20615;-77
2022/01/20 01:13:31;;;;;;;14.80;8.27;;;;;;;-0.11;100.00;96763.72;5051088;28;20458;-77
2022/01/20 01:15:57;;;;;;;13.43;7.87;;;;;;;-0.15;100.00;96763.97;5044965;28;21234;-77
2022/01/20 01:21:13;;;;;;;14.97;8.33;;;;;;;-0.14;100.00;96763.03;5066625;28;20029;-77
2022/01/20 01:23:42;;;;;;;12.75;6.90;;;;;;;-0.21;100.00;96766.88;5056224;28;20876;-78
2022/01/20 01:26:15;;;;;;;12.00;8.00;;;;;;;-0.20;100.00;96771.13;5055994;28;20064;-77
2022/01/20 01:28:42;;;;;;;15.65;9.68;;;;;;;-0.20;100.00;96766.81;5047932;28;20493;-77
2022/01/20 01:33:40;;;;;;;14.07;8.67;;;;;;;-0.22;100.00;96778.97;5068121;28;20853;-80
2022/01/20 01:36:07;;;;;;;14.87;8.63;;;;;;;-0.25;100.00;96764.44;5056918;28;20521;-79
2022/01/20 01:38:38;;;;;;;13.60;8.83;;;;;;;-0.29;100.00;96768.09;5075244;28;20466;-79
2022/01/20 01:41:11;;;;;;;13.23;8.33;;;;;;;-0.33;100.00;96765.78;5051960;28;20527;-77
2022/01/20 01:43:41;;;;;;;17.30;8.38;;;;;;;-0.31;100.00;96767.34;5045233;28;20525;-79
2022/01/20 01:46:07;;;;;;;13.77;8.47;;;;;;;-0.32;100.00;96763.09;5056747;28;20127;-79
2022/01/20 01:48:40;;;;;;;13.37;8.13;;;;;;;-0.37;100.00;96757.34;5055816;28;20451;-79
2022/01/20 01:51:07;;;;;;;15.83;8.67;;;;;;;-0.31;100.00;96751.84;5056419;28;20522;-79
2022/01/20 01:53:33;;;;;;;15.13;8.43;;;;;;;-0.34;100.00;96754.56;5081987;28;20458;-79
2022/01/20 01:55:59;;;;;;;15.50;9.30;;;;;;;-0.38;100.00;96757.41;5047087;28;20466;-80
2022/01/20 01:58:25;;;;;;;13.50;8.10;;;;;;;-0.37;100.00;96772.84;5042471;28;20029;-78
2022/01/20 02:01:10;;;;;;;14.47;9.03;;;;;;;-0.41;100.00;96770.47;5062122;28;20466;-80
2022/01/20 02:03:46;;;;;;;15.10;8.10;;;;;;;-0.39;100.00;96760.91;5083203;28;20467;-79
2022/01/20 02:19:59;;;;;;;11.77;8.05;;;;;;;-0.45;100.00;96753.47;5001174;28;20569;-79
2022/01/20 02:22:39;;;;;;;13.73;8.50;;;;;;;-0.44;100.00;96763.72;5029926;28;20039;-79
2022/01/20 02:25:19;;;;;;;15.30;8.87;;;;;;;-0.45;100.00;96749.13;5050139;28;20471;-80
2022/01/20 02:27:45;;;;;;;14.50;8.80;;;;;;;-0.40;100.00;96744.56;5050249;28;20623;-80
2022/01/20 02:30:13;;;;;;;14.20;8.60;;;;;;;-0.43;100.00;96744.75;5057474;28;20508;-79
2022/01/20 02:32:42;;;;;;;14.03;7.87;;;;;;;-0.42;100.00;96740.41;5064386;28;20479;-79
2022/01/20 02:35:10;;;;;;;12.20;8.27;;;;;;;-0.46;100.00;96744.88;5047063;28;20473;-79
2022/01/20 02:37:38;;;;;;;12.83;8.20;;;;;;;-0.43;100.00;96739.56;5074441;28;20462;-79
2022/01/20 02:45:26;;;;;;;14.77;8.10;;;;;;;-0.48;100.00;96741.53;5072678;28;20885;-80
2022/01/20 02:47:52;;;;;;;13.27;7.90;;;;;;;-0.49;100.00;96738.13;5048035;28;20481;-80
2022/01/20 02:50:18;;;;;;;14.63;8.37;;;;;;;-0.46;100.00;96744.06;5063904;28;20064;-79
2022/01/20 02:52:45;;;;;;;14.27;8.37;;;;;;;-0.44;100.00;96747.38;5056905;28;20565;-80
2022/01/20 02:55:11;;;;;;;13.17;7.73;;;;;;;-0.46;100.00;96739.72;5048520;28;20524;-80
2022/01/20 02:57:36;;;;;;;13.60;8.03;;;;;;;-0.48;100.00;96738.97;5066174;28;20987;-79
2022/01/20 03:00:06;;;;;;;12.50;8.40;;;;;;;-0.44;100.00;96749.97;5053814;28;20485;-79
2022/01/20 03:02:31;;;;;;;13.97;8.80;;;;;;;-0.50;100.00;96748.56;5063204;28;20025;-80
2022/01/20 03:04:57;;;;;;;13.60;8.43;;;;;;;-0.50;100.00;96745.97;5047988;28;20457;-79
2022/01/20 03:07:32;;;;;;;12.60;7.60;;;;;;;-0.48;100.00;96757.88;5075793;28;20025;-79
2022/01/20 03:09:58;;;;;;;11.63;7.90;;;;;;;-0.47;100.00;96758.69;5042427;28;20468;-79
2022/01/20 03:12:24;;;;;;;14.13;8.23;;;;;;;-0.46;100.00;96749.22;5062602;28;20463;-79
2022/01/20 03:14:49;;;;;;;11.57;7.57;;;;;;;-0.45;100.00;96754.31;5061221;28;20622;-75
2022/01/20 03:17:17;;;;;;;12.77;7.43;;;;;;;-0.42;100.00;96754.16;5040902;28;20075;-76
2022/01/20 03:19:43;;;;;;;14.73;7.97;;;;;;;-0.45;100.00;96761.22;5077521;28;20025;-76
2022/01/20 03:22:09;;;;;;;12.43;7.97;;;;;;;-0.49;100.00;96766.53;5077275;28;20455;-75
2022/01/20 03:24:35;;;;;;;13.53;6.87;;;;;;;-0.49;100.00;96758.78;5051695;28;20469;-75
2022/01/20 03:27:01;;;;;;;12.60;7.90;;;;;;;-0.47;100.00;96761.28;5034474;28;20525;-76
2022/01/20 03:29:27;;;;;;;12.73;7.53;;;;;;;-0.52;100.00;96761.53;5073978;28;20409;-74
2022/01/20 03:31:52;;;;;;;11.73;7.03;;;;;;;-0.51;100.00;96758.03;5039496;28;20478;-75
2022/01/20 03:34:21;;;;;;;10.53;7.10;;;;;;;-0.53;100.00;96753.88;5057747;28;20501;-76
2022/01/20 03:36:50;;;;;;;11.97;7.23;;;;;;;-0.48;100.00;96757.03;5068944;28;20024;-74
2022/01/20 03:39:20;;;;;;;11.07;7.13;;;;;;;-0.46;100.00;96760.41;5048853;28;20474;-76
2022/01/20 03:41:46;;;;;;;12.20;7.20;;;;;;;-0.44;100.00;96752.56;5066084;28;20454;-75
2022/01/20 03:44:22;;;;;;;11.60;7.20;;;;;;;-0.49;100.00;96760.53;5053123;28;20862;-75
2022/01/20 03:46:48;;;;;;;12.80;7.00;;;;;;;-0.47;100.00;96750.94;5047888;28;20457;-75
2022/01/20 03:49:34;;;;;;;11.10;7.20;;;;;;;-0.51;100.00;96760.59;5048845;28;20098;-75
2022/01/20 03:52:01;;;;;;;11.23;6.93;;;;;;;-0.49;100.00;96757.97;5060334;28;20119;-74
2022/01/20 03:54:31;;;;;;;12.50;7.70;;;;;;;-0.48;100.00;96757.88;5061148;28;20466;-75
2022/01/20 03:57:16;;;;;;;11.70;7.23;;;;;;;-0.51;100.00;96760.59;5043261;28;20524;-75
2022/01/20 04:00:05;;;;;;;9.77;6.33;;;;;;;-0.48;100.00;96757.03;5044832;28;20475;-76
2022/01/20 04:02:41;;;;;;;11.03;6.53;;;;;;;-0.47;100.00;96745.78;5061969;28;20426;-75
2022/01/20 04:05:41;;;;;;;11.63;6.60;;;;;;;-0.46;100.00;96749.22;4995122;28;20480;-75
2022/01/20 04:08:46;;;;;;;11.30;6.33;;;;;;;-0.49;100.00;96757.97;5045974;28;21081;-77
2022/01/20 04:11:17;;;;;;;10.47;6.53;;;;;;;-0.49;100.00;96760.53;5066499;28;21069;-78
2022/01/20 04:13:43;;;;;;;10.33;6.93;;;;;;;-0.44;100.00;96763.72;5040504;28;20464;-77
2022/01/20 04:16:39;;;;;;;11.50;6.47;;;;;;;-0.47;100.00;96758.69;5075210;28;20459;-77
2022/01/20 04:19:07;;;;;;;11.17;6.90;;;;;;;-0.46;100.00;96757.81;5047809;28;20463;-77
2022/01/20 04:21:34;;;;;;;10.33;6.63;;;;;;;-0.44;100.00;96747.38;5034820;28;20488;-77
2022/01/20 04:24:01;;;;;;;12.17;7.17;;;;;;;-0.45;100.00;96751.72;5046529;28;20454;-76
2022/01/20 04:26:30;;;;;;;10.80;6.73;;;;;;;-0.48;100.00;96742.38;5045132;28;21082;-77
2022/01/20 04:28:58;;;;;;;11.67;7.27;;;;;;;-0.51;100.00;96750.28;5065966;28;20489;-78
2022/01/20 04:31:30;;;;;;;10.63;7.00;;;;;;;-0.54;100.00;96758.22;5065590;28;20490;-77
2022/01/20 04:33:57;;;;;;;12.53;8.47;;;;;;;-0.54;100.00;96754.75;5047177;28;20545;-76
2022/01/20 04:36:28;;;;;;;11.17;6.93;;;;;;;-0.54;100.00;96760.78;5057696;28;20459;-76
2022/01/20 04:38:55;;;;;;;15.07;8.50;;;;;;;-0.53;100.00;96759.88;5062914;28;20466;-76
2022/01/20 04:41:22;;;;;;;12.07;7.77;;;;;;;-0.56;100.00;96759.19;5050709;28;21006;-76
2022/01/20 04:43:48;;;;;;;11.67;7.70;;;;;;;-0.52;100.00;96768.44;5060272;28;20517;-76
2022/01/20 04:46:24;;;;;;;12.80;8.13;;;;;;;-0.54;100.00;96763.38;5077141;28;20550;-75
2022/01/20 04:59:35;;;;;;;12.50;7.47;;;;;;;-0.53;100.00;96749.53;5072932;28;20573;-77
2022/01/20 05:02:01;;;;;;;13.00;7.87;;;;;;;-0.50;100.00;96738.22;5045119;28;20541;-77
2022/01/20 05:04:46;;;;;;;10.87;7.63;;;;;;;-0.47;100.00;96740.63;5057436;28;20563;-77
2022/01/20 05:07:24;;;;;;;15.27;9.57;;;;;;;-0.50;100.00;96738.22;5040990;28;20471;-76
2022/01/20 05:09:53;;;;;;;14.13;8.70;;;;;;;-0.51;100.00;96736.53;5060825;28;20487;-76
2022/01/20 05:12:25;;;;;;;11.60;7.37;;;;;;;-0.56;100.00;96741.13;5071845;28;20808;-75
2022/01/20 05:14:50;;;;;;;11.27;7.10;;;;;;;-0.48;100.00;96731.22;5065603;28;20475;-75
2022/01/20 05:17:19;;;;;;;10.83;6.80;;;;;;;-0.48;100.00;96739.78;5068352;28;20486;-78
2022/01/20 05:20:05;;;;;;;12.67;7.60;;;;;;;-0.46;100.00;96738.91;5057655;28;20469;-76
2022/01/20 05:22:36;;;;;;;10.73;6.93;;;;;;;-0.45;100.00;96738.81;5037308;28;20455;-76
2022/01/20 05:25:13;;;;;;;10.10;6.40;;;;;;;-0.46;100.00;96742.31;5050210;28;20032;-77
2022/01/20 05:27:42;;;;;;;9.40;6.07;;;;;;;-0.46;100.00;96736.31;5046827;28;20464;-77
2022/01/20 05:30:12;;;;;;;10.20;7.10;;;;;;;-0.40;100.00;96743.72;5049551;28;20921;-77
2022/01/20 05:33:00;;;;;;;9.73;6.47;;;;;;;-0.40;100.00;96743.72;5055428;28;21047;-77
2022/01/20 05:35:27;;;;;;;10.93;6.40;;;;;;;-0.37;100.00;96749.59;5054315;28;20495;-77
2022/01/20 05:37:53;;;;;;;12.90;7.70;;;;;;;-0.40;100.00;96748.88;5046513;28;20864;-77
2022/01/20 05:40:21;;;;;;;12.17;6.83;;;;;;;-0.37;100.00;96748.72;5041020;28;20471;-77
2022/01/20 05:42:49;;;;;;;11.73;7.77;;;;;;;-0.41;100.00;96760.16;5061161;28;20486;-77
2022/01/20 05:45:15;;;;;;;10.73;7.33;;;;;;;-0.43;100.00;96765.41;5053272;28;20456;-77
2022/01/20 05:47:47;;;;;;;11.07;7.53;;;;;;;-0.41;100.00;96763.56;5052906;28;20532;-80
2022/01/20 05:50:38;;;;;;;11.47;6.57;;;;;;;-0.31;100.00;96772.50;5062642;28;20486;-77
2022/01/20 05:53:10;;;;;;;10.97;6.80;;;;;;;-0.35;100.00;96765.00;5057563;28;20462;-78
2022/01/20 05:56:03;;;;;;;12.77;8.17;;;;;;;-0.33;100.00;96751.09;5082572;28;20490;-77
2022/01/20 05:58:57;;;;;;;13.73;8.23;;;;;;;-0.33;100.00;96753.69;5066242;28;20487;-77
2022/01/20 06:01:37;;;;;;;14.10;8.63;;;;;;;-0.33;100.00;96760.59;5058572;28;20475;-77
2022/01/20 06:04:37;;;;;;;13.97;8.47;;;;;;;-0.31;100.00;96762.16;5057531;28;20446;-77
2022/01/20 06:07:05;;;;;;;9.50;5.93;;;;;;;-0.30;100.00;96750.94;5040601;28;20495;-77
2022/01/20 06:09:31;;;;;;;17.97;10.33;;;;;;;-0.29;100.00;96751.78;5048523;28;20048;-77
2022/01/20 06:11:57;;;;;;;13.40;7.70;;;;;;;-0.24;100.00;96760.94;5042713;28;20036;-77
2022/01/20 06:14:27;;;;;;;14.00;8.73;;;;;;;-0.23;100.00;96751.44;5064755;28;20035;-78
2022/01/20 06:16:53;;;;;;;17.53;11.10;;;;;;;-0.19;100.00;96752.97;5058366;28;20025;-78
2022/01/20 06:19:18;;;;;;;13.77;8.17;;;;;;;-0.16;100.00;96747.63;5062577;28;20523;-78
2022/01/20 06:21:45;;;;;;;13.27;8.47;;;;;;;-0.12;100.00;96746.53;5049676;28;20027;-79
2022/01/20 06:24:11;;;;;;;15.17;10.03;;;;;;;-0.16;100.00;96747.63;5047441;28;20041;-79
2022/01/20 06:26:37;;;;;;;17.13;10.43;;;;;;;-0.11;100.00;96752.53;5067983;28;20550;-79
2022/01/20 06:29:06;;;;;;;16.43;10.43;;;;;;;-0.12;100.00;96743.97;5043180;28;20386;-79
2022/01/20 06:31:32;;;;;;;17.67;10.90;;;;;;;-0.12;100.00;96737.97;5071252;28;20107;-79
2022/01/20 06:33:58;;;;;;;16.63;9.77;;;;;;;-0.07;100.00;96731.63;5050791;28;20470;-78
2022/01/20 06:36:24;;;;;;;19.33;11.07;;;;;;;-0.12;100.00;96723.28;5066519;28;20458;-78
2022/01/20 06:38:50;;;;;;;18.73;11.93;;;;;;;-0.09;100.00;96724.88;5044912;28;21025;-77
2022/01/20 06:41:17;;;;;;;24.37;16.00;;;;;;;-0.11;100.00;96719.75;5040718;28;20099;-76
2022/01/20 06:43:43;;;;;;;50.50;32.93;;;;;;;-0.07;100.00;96721.28;5069478;28;20874;-78
2022/01/20 06:46:11;;;;;;;25.03;16.07;;;;;;;-0.07;100.00;96731.63;5052436;28;20476;-78
2022/01/20 06:48:53;;;;;;;29.67;21.00;;;;;;;-0.11;100.00;96739.63;5069726;28;21065;-77
2022/01/20 06:51:30;;;;;;;17.93;10.50;;;;;;;-0.06;100.00;96753.97;5045281;28;20471;-78
2022/01/20 06:53:56;;;;;;;16.70;9.37;;;;;;;-0.01;100.00;96764.06;5062599;28;20816;-79
2022/01/20 06:56:23;;;;;;;16.60;10.37;;;;;;;-0.06;100.00;96761.72;5042654;28;20463;-79
2022/01/20 06:58:50;;;;;;;16.50;10.30;;;;;;;-0.05;100.00;96763.41;5052627;28;20231;-79
2022/01/20 07:01:20;;;;;;;19.23;11.47;;;;;;;-0.04;100.00;96765.06;5063000;28;20501;-78
2022/01/20 07:03:50;;;;;;;15.23;10.20;;;;;;;-0.06;100.00;96758.31;5051056;28;20477;-76
2022/01/20 07:06:15;;;;;;;16.13;10.20;;;;;;;-0.04;100.00;96756.47;5066764;28;20492;-77
2022/01/20 07:09:01;;;;;;;16.53;10.03;;;;;;;-0.04;100.00;96746.97;5080485;28;20850;-78
2022/01/20 07:11:27;;;;;;;17.70;9.63;;;;;;;-0.05;100.00;96741.88;5064397;28;20470;-78
2022/01/20 07:13:55;;;;;;;13.30;8.67;;;;;;;-0.03;100.00;96758.16;5049668;28;20478;-77
2022/01/20 07:16:20;;;;;;;15.93;8.70;;;;;;;-0.02;100.00;96770.16;5046531;28;21222;-78
2022/01/20 07:18:46;;;;;;;18.07;8.80;;;;;;;-0.04;100.00;96769.41;5056999;28;20132;-79
2022/01/20 07:21:12;;;;;;;18.23;10.43;;;;;;;-0.05;100.00;96770.31;5045018;28;20020;-78
2022/01/20 07:23:48;;;;;;;20.17;10.33;;;;;;;-0.04;100.00;96777.16;5055311;28;20059;-78
2022/01/20 07:26:15;;;;;;;14.50;8.53;;;;;;;0.00;100.00;96783.84;5055339;28;20549;-78
2022/01/20 07:28:46;;;;;;;20.97;9.97;;;;;;;0.03;100.00;96788.84;5056061;28;20465;-78
2022/01/20 07:31:14;;;;;;;19.20;9.40;;;;;;;0.01;100.00;96788.09;5063926;28;20849;-78
2022/01/20 07:33:42;;;;;;;18.00;9.00;;;;;;;0.03;100.00;96778.50;5053304;28;20038;-78
2022/01/20 07:36:09;;;;;;;13.40;8.50;;;;;;;0.05;100.00;96774.09;5048132;28;20613;-78
2022/01/20 07:38:35;;;;;;;18.13;7.47;;;;;;;0.03;100.00;96775.06;5061586;28;20490;-78
2022/01/20 07:41:01;;;;;;;14.70;6.77;;;;;;;0.09;100.00;96777.34;5049554;28;20471;-79
2022/01/20 07:43:27;;;;;;;13.57;6.77;;;;;;;0.08;100.00;96776.50;5068508;28;20024;-79
2022/01/20 07:45:54;;;;;;;13.87;7.10;;;;;;;0.06;100.00;96787.84;5044639;28;20079;-79
2022/01/20 07:48:43;;;;;;;12.07;6.03;;;;;;;0.05;100.00;96784.44;5063243;28;20885;-79
2022/01/20 07:51:14;;;;;;;12.60;6.13;;;;;;;0.11;100.00;96791.88;5077402;28;21077;-80
2022/01/20 07:53:44;;;;;;;14.13;7.13;;;;;;;0.14;100.00;96802.06;5059734;28;20993;-79
2022/01/20 07:56:10;;;;;;;11.57;6.33;;;;;;;0.13;100.00;96810.72;5051816;28;20470;-79
2022/01/20 07:58:37;;;;;;;19.03;7.17;;;;;;;0.18;100.00;96805.31;5053629;28;20802;-79
2022/01/20 08:01:05;;;;;;;14.43;6.43;;;;;;;0.17;100.00;96803.66;5071334;28;20889;-78
2022/01/20 08:03:36;;;;;;;15.32;6.80;;;;;;;0.14;100.00;96822.75;5056878;28;20474;-79
2022/01/20 08:06:05;;;;;;;13.37;6.73;;;;;;;0.13;100.00;96836.56;5053855;28;20025;-79
2022/01/20 08:08:34;;;;;;;17.07;7.03;;;;;;;0.12;100.00;96834.91;5072380;28;20454;-79
2022/01/20 08:11:22;;;;;;;17.50;6.83;;;;;;;0.12;100.00;96834.91;5069373;28;21074;-79
2022/01/20 08:13:49;;;;;;;15.07;6.50;;;;;;;0.14;100.00;96835.69;5082811;28;20459;-79
2022/01/20 08:16:15;;;;;;;12.77;7.20;;;;;;;0.17;100.00;96842.44;5069663;28;20466;-79
2022/01/20 08:18:41;;;;;;;11.80;6.77;;;;;;;0.26;100.00;96830.75;5064327;28;20036;-79
2022/01/20 08:21:07;;;;;;;13.30;6.00;;;;;;;0.23;100.00;96834.34;5059989;28;20063;-79
2022/01/20 08:23:32;;;;;;;15.73;6.60;;;;;;;0.26;100.00;96841.09;5070071;28;20094;-78
2022/01/20 08:25:58;;;;;;;13.53;6.47;;;;;;;0.35;100.00;96849.22;5068720;28;20063;-78
2022/01/20 08:28:25;;;;;;;11.23;6.60;;;;;;;0.30;100.00;96837.44;5070377;28;20036;-79
2022/01/20 08:30:52;;;;;;;13.83;6.17;;;;;;;0.32;100.00;96839.03;5064850;28;20034;-78
2022/01/20 08:33:18;;;;;;;14.40;6.67;;;;;;;0.40;100.00;96844.66;5064528;28;20462;-78
2022/01/20 08:35:48;;;;;;;14.53;6.60;;;;;;;0.39;100.00;96839.53;5069311;28;20465;-78
2022/01/20 08:38:34;;;;;;;13.43;6.33;;;;;;;0.56;100.00;96849.81;5079750;28;20459;-79
2022/01/20 08:41:00;;;;;;;16.27;5.87;;;;;;;0.60;100.00;96834.97;5073420;28;20547;-79
2022/01/20 08:43:26;;;;;;;17.57;5.67;;;;;;;0.56;100.00;96842.06;5069840;28;21061;-79
2022/01/20 08:45:52;;;;;;;15.23;5.63;;;;;;;0.57;100.00;96825.63;5047393;28;20063;-78
2022/01/20 08:48:20;;;;;;;10.57;5.20;;;;;;;0.58;100.00;96831.63;5055566;28;20027;-78
2022/01/20 08:51:13;;;;;;;15.40;6.03;;;;;;;0.60;100.00;96837.53;5065159;28;20478;-78
2022/01/20 08:54:05;;;;;;;17.67;6.20;;;;;;;0.46;100.00;96841.72;5066908;28;20450;-78
2022/01/20 08:56:36;;;;;;;13.17;6.60;;;;;;;0.43;100.00;96859.97;5079599;28;20532;-78
2022/01/20 08:59:06;;;;;;;29.33;14.23;;;;;;;0.44;100.00;96859.09;5045324;28;20473;-78
2022/01/20 09:01:33;;;;;;;44.93;17.20;;;;;;;0.41;100.00;96863.59;5048373;28;20669;-80
2022/01/20 09:03:59;;;;;;;61.37;25.17;;;;;;;0.41;100.00;96861.00;5058495;28;20462;-78
2022/01/20 09:06:25;;;;;;;104.87;37.57;;;;;;;0.44;100.00;96869.44;5068761;28;21080;-79
2022/01/20 09:08:58;;;;;;;195.05;64.30;;;;;;;0.42;100.00;96871.25;5074000;28;20043;-78
2022/01/20 09:11:30;;;;;;;248.50;86.03;;;;;;;0.42;100.00;96875.59;5045125;28;20406;-78
2022/01/20 09:16:48;;;;;;;92.30;35.70;;;;;;;0.32;100.00;96866.66;5062526;28;20470;-78
2022/01/20 09:19:17;;;;;;;287.27;101.47;;;;;;;0.29;100.00;96866.81;5061761;28;20915;-78
2022/01/20 09:22:05;;;;;;;353.03;127.00;;;;;;;0.28;100.00;96870.34;5061756;28;20490;-79
2022/01/20 09:24:32;;;;;;;117.80;44.83;;;;;;;0.27;100.00;96868.63;5065973;28;21254;-78
2022/01/20 09:27:02;;;;;;;146.23;56.23;;;;;;;0.31;100.00;96870.16;5052420;28;20456;-78
2022/01/20 09:29:29;;;;;;;106.97;45.30;;;;;;;0.34;100.00;96857.91;5074027;28;20474;-78
2022/01/20 09:31:57;;;;;;;151.40;57.80;;;;;;;0.31;100.00;96871.00;5064306;28;20542;-80
2022/01/20 09:34:28;;;;;;;444.40;189.43;;;;;;;0.25;100.00;96866.16;5049235;28;20465;-79
2022/01/20 09:36:54;;;;;;;435.27;185.57;;;;;;;0.27;100.00;96869.50;5059468;28;20447;-78
2022/01/20 09:39:21;;;;;;;247.30;102.07;;;;;;;0.25;100.00;96873.06;5067385;28;21283;-78
2022/01/20 09:41:54;;;;;;;88.45;35.95;;;;;;;0.29;100.00;96866.81;5061252;28;20466;-78
2022/01/20 09:44:22;;;;;;;270.67;106.77;;;;;;;0.26;100.00;96864.38;5063131;28;20572;-78
2022/01/20 09:46:48;;;;;;;64.63;26.40;;;;;;;0.34;100.00;96854.50;5046589;28;20454;-80
2022/01/20 09:49:38;;;;;;;44.80;18.63;;;;;;;0.33;100.00;96857.97;5063812;28;20397;-79
2022/01/20 09:52:10;;;;;;;540.92;250.18;;;;;;;0.37;100.00;96839.63;5065671;28;20883;-78
2022/01/20 09:54:41;;;;;;;236.43;95.83;;;;;;;0.43;100.00;96844.47;5046824;28;20037;-79
2022/01/20 09:57:16;;;;;;;30.53;20.57;;;;;;;0.51;100.00;96849.25;5067044;28;20462;-79
2022/01/20 09:59:48;;;;;;;14.77;8.40;;;;;;;0.50;100.00;96857.06;5073399;28;20492;-80
2022/01/20 10:02:18;;;;;;;18.10;9.40;;;;;;;0.46;100.00;96852.06;5049617;28;20523;-80
2022/01/20 10:04:45;;;;;;;23.37;8.10;;;;;;;0.56;100.00;96857.59;5081352;28;20459;-80
2022/01/20 10:07:19;;;;;;;;;;;;;;;0.56;100.00;96860.16;5050419;28;20458;-80
2022/01/20 10:09:54;;;;;;;17.43;9.10;;;;;;;0.60;100.00;96863.44;5076316;28;20415;-80
2022/01/20 10:12:21;;;;;;;20.37;8.20;;;;;;;0.65;100.00;96875.22;5064606;28;20479;-81
2022/01/20 10:15:00;;;;;;;15.57;7.57;;;;;;;0.85;100.00;96875.88;5052250;28;20032;-80
2022/01/20 10:17:46;;;;;;;17.07;7.30;;;;;;;0.83;100.00;96885.47;5063888;28;20475;-81
2022/01/20 10:20:15;;;;;;;14.97;7.53;;;;;;;0.78;100.00;96880.56;5058354;28;20884;-80
2022/01/20 10:22:56;;;;;;;15.67;6.43;;;;;;;0.74;100.00;96873.03;5057741;28;20504;-81
2022/01/20 10:25:41;;;;;;;12.27;5.97;;;;;;;0.73;100.00;96881.72;5061933;28;20864;-81
2022/01/20 10:28:14;;;;;;;16.47;6.40;;;;;;;0.76;100.00;96878.97;5066359;28;20544;-81
2022/01/20 10:30:42;;;;;;;14.83;5.87;;;;;;;0.80;100.00;96876.13;5063635;28;20463;-81
2022/01/20 10:33:08;;;;;;;15.33;6.60;;;;;;;0.80;100.00;96878.72;5051439;28;20462;-79
2022/01/20 10:35:38;;;;;;;15.60;6.20;;;;;;;0.83;100.00;96872.53;5049298;28;20459;-79
2022/01/20 10:38:14;;;;;;;16.13;6.77;;;;;;;0.82;100.00;96871.72;5055225;28;20458;-79
2022/01/20 10:40:59;;;;;;;17.77;8.83;;;;;;;0.89;100.00;96872.22;5044009;28;20547;-78
2022/01/20 10:43:34;;;;;;;52.05;22.63;;;;;;;0.89;100.00;96859.25;5067503;28;20466;-78
2022/01/20 10:46:18;;;;;;;33.50;18.77;;;;;;;0.85;100.00;96853.41;5086545;28;20047;-78
2022/01/20 10:48:57;;;;;;;111.13;53.70;;;;;;;0.94;100.00;96865.03;5057985;28;21285;-79
2022/01/20 10:51:23;;;;;;;111.97;51.43;;;;;;;0.94;100.00;96876.22;5055905;28;20828;-78
2022/01/20 10:54:07;;;;;;;89.70;40.80;;;;;;;1.03;100.00;96866.25;5062486;28;20466;-78
2022/01/20 10:56:51;;;;;;;58.97;30.70;;;;;;;1.17;100.00;96855.97;5070343;28;20466;-80
2022/01/20 10:59:17;;;;;;;16.27;6.33;;;;;;;1.39;100.00;96860.78;5046673;28;20127;-79
2022/01/20 11:01:45;;;;;;;16.67;6.03;;;;;;;1.69;100.00;96852.16;5073725;28;20486;-78
2022/01/20 11:04:11;;;;;;;21.17;6.30;;;;;;;1.59;100.00;96850.09;5042032;28;20558;-78
2022/01/20 11:06:39;;;;;;;14.43;5.13;;;;;;;1.53;100.00;96841.84;5065061;28;20942;-78
2022/01/20 11:09:27;;;;;;;16.23;5.37;;;;;;;1.38;100.00;96841.81;5068527;28;20593;-77
2022/01/20 11:12:14;;;;;;;12.80;4.80;;;;;;;1.22;100.00;96832.41;5067360;28;20508;-81
2022/01/20 11:14:51;;;;;;;12.43;4.40;;;;;;;1.14;100.00;96838.84;5041437;28;20850;-77
2022/01/20 11:17:36;;;;;;;13.10;5.07;;;;;;;1.02;100.00;96834.34;5047928;28;20477;-78
2022/01/20 11:20:30;;;;;;;12.73;5.03;;;;;;;1.00;100.00;96841.38;5043895;28;21027;-77
2022/01/20 11:23:09;;;;;;;15.03;5.90;;;;;;;0.96;100.00;96837.28;5050588;28;20500;-77
2022/01/20 11:25:46;;;;;;;14.03;5.70;;;;;;;1.08;100.00;96836.59;5047934;28;20486;-79
2022/01/20 11:28:41;;;;;;;17.97;6.27;;;;;;;1.32;100.00;96838.72;5032079;28;20527;-78
2022/01/20 11:31:34;;;;;;;11.30;4.67;;;;;;;1.30;100.00;96840.56;5050780;28;20499;-78
2022/01/20 11:34:26;;;;;;;12.38;4.97;;;;;;;1.02;100.00;96842.13;5046128;28;20455;-77
2022/01/20 11:36:52;;;;;;;12.83;4.37;;;;;;;0.83;100.00;96844.88;5057038;28;20162;-77
2022/01/20 11:39:23;;;;;;;13.70;4.70;;;;;;;0.81;100.00;96843.31;5076732;28;20490;-77
2022/01/20 11:41:52;;;;;;;23.37;7.43;;;;;;;0.69;100.00;96853.41;5075188;28;20029;-78
2022/01/20 11:44:27;;;;;;;13.03;4.60;;;;;;;0.76;100.00;96858.25;5043542;28;20791;-78
2022/01/20 11:47:03;;;;;;;13.40;6.70;;;;;;;0.73;100.00;96848.91;5059382;28;20520;-78
2022/01/20 11:49:35;;;;;;;12.87;5.40;;;;;;;0.70;100.00;96856.84;5043494;28;21018;-78
2022/01/20 11:52:01;;;;;;;12.53;5.40;;;;;;;0.75;100.00;96849.66;5065614;28;20447;-77
2022/01/20 11:54:32;;;;;;;11.67;4.73;;;;;;;0.76;100.00;96840.13;5074139;28;20450;-77
2022/01/20 11:57:08;;;;;;;9.23;4.80;;;;;;;0.82;100.00;96832.03;5052823;28;20089;-77
2022/01/20 11:59:57;;;;;;;12.00;5.10;;;;;;;0.85;100.00;96835.28;5064115;28;20471;-78
2022/01/20 12:02:33;;;;;;;20.23;7.07;;;;;;;0.89;100.00;96833.38;5050458;28;20498;-78
2022/01/20 12:05:16;;;;;;;15.10;7.17;;;;;;;0.94;100.00;96826.19;5074168;28;20846;-78
2022/01/20 12:07:47;;;;;;;10.70;5.60;;;;;;;0.89;100.00;96823.00;5066692;28;20458;-77
2022/01/20 12:10:21;;;;;;;11.83;5.70;;;;;;;0.90;100.00;96820.31;5055877;28;20563;-78
2022/01/20 12:12:46;;;;;;;10.20;4.47;;;;;;;0.82;100.00;96827.69;5065501;28;20145;-77
2022/01/20 12:15:20;;;;;;;12.80;5.03;;;;;;;0.77;100.00;96826.28;5049571;28;20732;-77
2022/01/20 12:17:55;;;;;;;12.27;5.40;;;;;;;0.56;100.00;96829.13;5062889;28;20590;-79
2022/01/20 12:20:22;;;;;;;9.60;5.13;;;;;;;0.54;100.00;96833.56;5052919;28;21097;-76
2022/01/20 12:22:49;;;;;;;11.20;5.43;;;;;;;0.57;100.00;96828.22;5055286;28;20474;-78
2022/01/20 12:25:36;;;;;;;9.97;5.87;;;;;;;0.57;100.00;96824.75;5055360;28;20569;-77
2022/01/20 12:28:07;;;;;;;7.87;5.07;;;;;;;0.47;100.00;96814.94;5047002;28;21055;-77
2022/01/20 12:30:36;;;;;;;15.87;7.90;;;;;;;0.37;100.00;96818.94;5033675;28;20498;-78
2022/01/20 12:33:14;;;;;;;16.20;7.03;;;;;;;0.30;100.00;96822.75;5067737;28;20450;-78
2022/01/20 12:35:45;;;;;;;11.27;5.97;;;;;;;0.21;100.00;96831.00;5043411;28;20477;-78
2022/01/20 12:38:17;;;;;;;15.97;6.23;;;;;;;0.15;100.00;96831.34;5077314;28;20466;-78
2022/01/20 12:40:46;;;;;;;13.67;4.83;;;;;;;0.00;100.00;96832.97;5072955;28;20468;-78
2022/01/20 12:43:13;;;;;;;11.43;4.40;;;;;;;0.09;100.00;96829.91;5061462;28;20489;-78